Time;durP1;ratioP1;P1;durP2;ratioP2;P2;SDS_P1;SDS_P2;PMS_P1;PMS_P2;Temp;Humidity;BMP_temperature;BMP_pressure;BME280_temperature;BME280_humidity;BME280_pressure;Samples;Min_cycle;Max_cycle;Signal;HPM_P1;HPM_P2
2023/07/02 00:02:16;;;;;;;;;;;21.10;60.00;;;;;;5093926;28;19943;-58
2023/07/02 00:04:42;;;;;;;;;;;21.10;60.00;;;;;;5094212;28;19919;-58
2023/07/02 00:07:08;;;;;;;;;;;21.20;60.00;;;;;;5093288;28;19959;-59
2023/07/02 00:09:33;;;;;;;;;;;21.20;60.10;;;;;;5093861;28;20382;-58
2023/07/02 00:11:59;;;;;;;;;;;21.10;60.00;;;;;;5092281;28;20019;-58
2023/07/02 00:14:24;;;;;;;;;;;21.10;60.00;;;;;;5091677;28;20349;-59
2023/07/02 00:16:50;;;;;;;;;;;21.10;60.00;;;;;;5091439;28;19931;-58
2023/07/02 00:19:15;;;;;;;;;;;21.20;60.10;;;;;;5092169;28;20028;-58
2023/07/02 00:21:41;;;;;;;;;;;21.10;60.00;;;;;;5092501;28;19920;-59
2023/07/02 00:24:09;;;;;;;;;;;21.10;60.00;;;;;;5092484;28;19982;-58
2023/07/02 00:26:35;;;;;;;;;;;21.10;60.00;;;;;;5093650;28;20008;-58
2023/07/02 00:29:00;;;;;;;;;;;21.10;60.00;;;;;;5092140;28;20444;-58
2023/07/02 00:31:26;;;;;;;;;;;21.10;60.00;;;;;;5091846;28;19924;-58
2023/07/02 00:33:51;;;;;;;;;;;21.10;60.00;;;;;;5091844;28;19927;-59
2023/07/02 00:36:17;;;;;;;;;;;21.10;60.10;;;;;;5091925;28;19942;-58
2023/07/02 00:38:44;;;;;;;;;;;21.10;60.00;;;;;;5093041;28;19920;-58
2023/07/02 00:41:10;;;;;;;;;;;21.10;60.00;;;;;;5091722;28;19935;-58
2023/07/02 00:43:36;;;;;;;;;;;21.10;60.00;;;;;;5092332;28;19920;-58
2023/07/02 00:46:02;;;;;;;;;;;21.10;60.00;;;;;;5091820;28;19920;-58
2023/07/02 00:48:29;;;;;;;;;;;21.00;60.00;;;;;;5092276;28;20363;-58
2023/07/02 00:50:55;;;;;;;;;;;21.00;60.00;;;;;;5091853;28;19927;-58
2023/07/02 00:53:20;;;;;;;;;;;21.00;60.00;;;;;;5091450;28;20483;-59
2023/07/02 00:55:46;;;;;;;;;;;21.00;60.00;;;;;;5091349;28;20006;-58
2023/07/02 00:58:15;;;;;;;;;;;21.00;60.00;;;;;;5091282;28;19920;-58
2023/07/02 01:00:43;;;;;;;;;;;21.00;60.00;;;;;;5091363;28;19924;-58
2023/07/02 01:03:09;;;;;;;;;;;21.10;60.10;;;;;;5091903;28;19926;-58
2023/07/02 01:05:35;;;;;;;;;;;21.00;60.00;;;;;;5091816;28;19920;-58
2023/07/02 01:08:05;;;;;;;;;;;21.00;60.10;;;;;;5091967;28;20260;-59
2023/07/02 01:10:32;;;;;;;;;;;21.00;60.00;;;;;;5092402;28;19926;-58
2023/07/02 01:13:01;;;;;;;;;;;21.00;60.00;;;;;;5091047;28;19977;-58
2023/07/02 01:15:26;;;;;;;;;;;21.00;60.10;;;;;;5092570;28;19920;-58
2023/07/02 01:17:52;;;;;;;;;;;21.00;60.00;;;;;;5092225;28;20378;-58
2023/07/02 01:20:19;;;;;;;;;;;21.00;60.00;;;;;;5091405;28;19920;-57
2023/07/02 01:22:46;;;;;;;;;;;21.00;60.00;;;;;;5091201;28;19920;-58
2023/07/02 01:25:11;;;;;;;;;;;21.00;60.00;;;;;;5091992;28;19920;-58
2023/07/02 01:27:37;;;;;;;;;;;21.00;60.00;;;;;;5125356;27;19927;-58
2023/07/02 01:30:03;;;;;;;;;;;21.00;60.00;;;;;;5091171;28;19973;-58
2023/07/02 01:32:29;;;;;;;;;;;21.00;60.00;;;;;;5091412;28;20044;-58
2023/07/02 01:34:55;;;;;;;;;;;20.90;60.00;;;;;;5091126;28;20379;-58
2023/07/02 01:37:21;;;;;;;;;;;20.90;60.00;;;;;;5092039;28;19966;-58
2023/07/02 01:39:46;;;;;;;;;;;21.00;60.00;;;;;;5090887;28;20379;-58
2023/07/02 01:42:15;;;;;;;;;;;20.90;59.90;;;;;;5092257;28;19927;-58
2023/07/02 01:44:41;;;;;;;;;;;20.90;59.90;;;;;;5091498;28;19946;-58
2023/07/02 01:47:06;;;;;;;;;;;20.90;59.90;;;;;;5090888;28;19920;-58
2023/07/02 01:49:32;;;;;;;;;;;20.90;59.90;;;;;;5090582;28;19989;-58
2023/07/02 01:51:58;;;;;;;;;;;21.00;60.00;;;;;;5090557;28;19931;-58
2023/07/02 01:54:26;;;;;;;;;;;21.00;60.00;;;;;;5090996;28;20022;-59
2023/07/02 01:56:52;;;;;;;;;;;20.90;59.90;;;;;;5091873;28;19927;-58
2023/07/02 01:59:18;;;;;;;;;;;20.90;60.60;;;;;;5090672;28;19920;-58
2023/07/02 02:01:43;;;;;;;;;;;20.90;59.90;;;;;;5090668;28;19924;-58
2023/07/02 02:04:09;;;;;;;;;;;20.90;59.90;;;;;;5091436;28;20275;-58
2023/07/02 02:06:35;;;;;;;;;;;20.90;59.80;;;;;;5091110;28;19920;-58
2023/07/02 02:09:00;;;;;;;;;;;20.90;59.80;;;;;;5091091;28;19927;-58
2023/07/02 02:11:26;;;;;;;;;;;20.90;59.80;;;;;;5090756;28;19924;-58
2023/07/02 02:13:51;;;;;;;;;;;20.90;59.80;;;;;;5090931;28;19920;-58
2023/07/02 02:16:17;;;;;;;;;;;20.80;59.70;;;;;;5090531;28;19920;-58
2023/07/02 02:18:43;;;;;;;;;;;20.90;59.80;;;;;;5091866;28;19974;-58
2023/07/02 02:21:08;;;;;;;;;;;20.80;59.70;;;;;;5090917;28;19920;-58
2023/07/02 02:23:34;;;;;;;;;;;20.80;59.70;;;;;;5090776;28;20245;-58
2023/07/02 02:25:59;;;;;;;;;;;20.80;59.70;;;;;;5092160;28;19953;-58
2023/07/02 02:28:25;;;;;;;;;;;20.80;59.70;;;;;;5090924;28;19921;-58
2023/07/02 02:30:50;;;;;;;;;;;20.80;59.60;;;;;;5090776;28;19982;-58
2023/07/02 02:33:16;;;;;;;;;;;20.80;59.60;;;;;;5091612;28;19924;-58
2023/07/02 02:35:41;;;;;;;;;;;20.80;59.60;;;;;;5073422;28;19946;-58
2023/07/02 02:38:07;;;;;;;;;;;20.70;59.60;;;;;;5091069;28;19927;-58
2023/07/02 02:40:32;;;;;;;;;;;20.80;59.60;;;;;;5095640;28;20366;-58
2023/07/02 02:42:58;;;;;;;;;;;20.80;59.60;;;;;;5094530;28;19981;-59
2023/07/02 02:45:23;;;;;;;;;;;20.80;59.60;;;;;;5094330;28;20387;-58
2023/07/02 02:47:49;;;;;;;;;;;20.80;59.60;;;;;;5094638;28;19959;-58
2023/07/02 02:50:14;;;;;;;;;;;20.80;59.60;;;;;;5095928;28;20022;-58
2023/07/02 02:52:40;;;;;;;;;;;20.70;59.50;;;;;;5095577;28;19924;-58
2023/07/02 02:55:06;;;;;;;;;;;20.70;59.40;;;;;;5095692;28;19967;-58
2023/07/02 02:57:32;;;;;;;;;;;20.70;59.40;;;;;;5094195;28;19920;-58
2023/07/02 02:59:58;;;;;;;;;;;20.70;59.40;;;;;;5094175;28;19927;-58
2023/07/02 03:02:23;;;;;;;;;;;20.70;59.50;;;;;;5094477;28;19928;-58
2023/07/02 03:04:52;;;;;;;;;;;20.70;59.40;;;;;;5094463;28;19924;-58
2023/07/02 03:07:17;;;;;;;;;;;20.70;59.40;;;;;;5095469;28;20280;-58
2023/07/02 03:09:43;;;;;;;;;;;20.70;59.40;;;;;;5094089;28;19950;-58
2023/07/02 03:12:09;;;;;;;;;;;20.70;59.40;;;;;;5094160;28;19924;-58
2023/07/02 03:14:34;;;;;;;;;;;20.70;59.40;;;;;;5093996;28;20383;-58
2023/07/02 03:17:00;;;;;;;;;;;20.70;59.40;;;;;;5094192;28;19920;-58
2023/07/02 03:19:25;;;;;;;;;;;20.70;59.40;;;;;;5093952;28;19920;-58
2023/07/02 03:21:51;;;;;;;;;;;20.70;59.40;;;;;;5095007;28;19920;-58
2023/07/02 03:24:16;;;;;;;;;;;20.70;59.30;;;;;;5094955;28;19926;-58
2023/07/02 03:26:42;;;;;;;;;;;20.70;59.30;;;;;;5093693;28;19927;-59
2023/07/02 03:29:08;;;;;;;;;;;20.70;59.30;;;;;;5094011;28;20016;-58
2023/07/02 03:31:34;;;;;;;;;;;20.60;59.30;;;;;;5094069;28;20001;-58
2023/07/02 03:34:03;;;;;;;;;;;20.60;59.30;;;;;;5094714;28;19920;-59
2023/07/02 03:36:28;;;;;;;;;;;20.60;59.50;;;;;;5093828;28;19920;-58
2023/07/02 03:38:54;;;;;;;;;;;20.60;59.30;;;;;;5094727;28;19920;-58
2023/07/02 03:41:19;;;;;;;;;;;20.60;59.30;;;;;;5093865;28;20034;-58
2023/07/02 03:43:44;;;;;;;;;;;20.60;59.30;;;;;;5093257;28;20414;-58
2023/07/02 03:46:10;;;;;;;;;;;20.60;59.20;;;;;;5093595;28;20003;-58
2023/07/02 03:48:35;;;;;;;;;;;20.60;59.20;;;;;;5093196;28;19920;-58
2023/07/02 03:51:02;;;;;;;;;;;20.60;59.30;;;;;;5093137;28;20374;-58
2023/07/02 03:53:27;;;;;;;;;;;20.60;59.20;;;;;;5093076;28;20019;-58
2023/07/02 03:55:53;;;;;;;;;;;20.50;59.20;;;;;;5094575;28;20026;-58
2023/07/02 03:58:18;;;;;;;;;;;20.60;59.20;;;;;;5092933;28;20398;-58
2023/07/02 04:00:49;;;;;;;;;;;20.60;59.20;;;;;;5093337;28;19946;-58
2023/07/02 04:03:15;;;;;;;;;;;20.50;59.20;;;;;;5092918;28;19966;-58
2023/07/02 04:05:41;;;;;;;;;;;20.50;59.10;;;;;;5093204;28;20002;-57
2023/07/02 04:08:06;;;;;;;;;;;20.50;59.10;;;;;;5094073;28;20007;-58
2023/07/02 04:10:32;;;;;;;;;;;20.50;59.10;;;;;;5092791;28;19924;-58
2023/07/02 04:12:57;;;;;;;;;;;20.50;59.10;;;;;;5092706;28;19946;-58
2023/07/02 04:15:25;;;;;;;;;;;20.50;59.10;;;;;;5093024;28;19924;-58
2023/07/02 04:17:51;;;;;;;;;;;20.50;59.10;;;;;;5093042;28;19920;-58
2023/07/02 04:20:18;;;;;;;;;;;20.50;59.10;;;;;;5092566;28;19969;-58
2023/07/02 04:22:44;;;;;;;;;;;20.50;59.00;;;;;;5094038;28;19931;-58
2023/07/02 04:25:11;;;;;;;;;;;20.50;59.10;;;;;;5092808;28;19920;-58
2023/07/02 04:27:36;;;;;;;;;;;20.50;59.10;;;;;;5092499;28;19969;-58
2023/07/02 04:30:03;;;;;;;;;;;20.50;59.10;;;;;;5093792;28;19923;-57
2023/07/02 04:32:28;;;;;;;;;;;20.50;59.10;;;;;;5091570;28;19969;-58
2023/07/02 04:34:54;;;;;;;;;;;20.50;59.00;;;;;;5125670;27;19924;-58
2023/07/02 04:37:19;;;;;;;;;;;20.50;59.00;;;;;;5091932;28;19956;-58
2023/07/02 04:39:44;;;;;;;;;;;20.40;59.00;;;;;;5091334;28;20371;-58
2023/07/02 04:42:13;;;;;;;;;;;20.50;59.00;;;;;;5091544;28;20015;-58
2023/07/02 04:44:39;;;;;;;;;;;20.40;58.90;;;;;;5091726;28;19924;-58
2023/07/02 04:47:04;;;;;;;;;;;20.40;59.00;;;;;;5091522;28;20011;-58
2023/07/02 04:49:30;;;;;;;;;;;20.40;58.90;;;;;;5091502;28;20386;-58
2023/07/02 04:51:55;;;;;;;;;;;20.40;58.90;;;;;;5090987;28;19979;-58
2023/07/02 04:54:21;;;;;;;;;;;20.40;58.90;;;;;;5091805;28;19927;-58
2023/07/02 04:56:47;;;;;;;;;;;20.40;58.90;;;;;;5091511;28;20013;-58
2023/07/02 04:59:13;;;;;;;;;;;20.40;58.90;;;;;;5092217;28;19927;-58
2023/07/02 05:01:39;;;;;;;;;;;20.40;58.90;;;;;;5091360;28;19923;-58
2023/07/02 05:04:05;;;;;;;;;;;20.40;58.90;;;;;;5091773;28;20272;-58
2023/07/02 05:06:30;;;;;;;;;;;20.40;58.80;;;;;;5091389;28;19959;-59
2023/07/02 05:08:56;;;;;;;;;;;20.40;58.90;;;;;;5091215;28;19998;-58
2023/07/02 05:11:21;;;;;;;;;;;20.40;58.90;;;;;;5090897;28;19920;-58
2023/07/02 05:13:47;;;;;;;;;;;20.40;58.80;;;;;;5091551;28;19927;-58
2023/07/02 05:16:13;;;;;;;;;;;20.40;58.90;;;;;;5092304;28;20338;-58
2023/07/02 05:18:38;;;;;;;;;;;20.40;58.80;;;;;;5091868;28;19931;-58
2023/07/02 05:21:04;;;;;;;;;;;20.40;58.80;;;;;;5091766;28;20367;-58
2023/07/02 05:23:29;;;;;;;;;;;20.40;58.80;;;;;;5092776;28;20370;-58
2023/07/02 05:25:55;;;;;;;;;;;20.40;58.80;;;;;;5092634;28;19920;-58
2023/07/02 05:28:20;;;;;;;;;;;20.40;58.80;;;;;;5091168;28;19920;-58
2023/07/02 05:30:46;;;;;;;;;;;20.30;58.80;;;;;;5090915;28;20445;-59
2023/07/02 05:33:12;;;;;;;;;;;20.30;58.70;;;;;;5091301;28;19931;-58
2023/07/02 05:35:38;;;;;;;;;;;20.30;58.70;;;;;;5091671;28;19920;-59
2023/07/02 05:38:03;;;;;;;;;;;20.40;58.70;;;;;;5091317;28;20030;-58
2023/07/02 05:40:28;;;;;;;;;;;20.40;58.70;;;;;;5091877;28;19920;-58
2023/07/02 05:42:54;;;;;;;;;;;20.40;58.70;;;;;;5091320;28;19921;-58
2023/07/02 05:45:20;;;;;;;;;;;20.30;58.70;;;;;;5091152;28;19969;-58
2023/07/02 05:47:45;;;;;;;;;;;20.30;58.70;;;;;;5091275;28;19985;-58
2023/07/02 05:50:11;;;;;;;;;;;20.30;58.70;;;;;;5090752;28;20007;-58
2023/07/02 05:52:36;;;;;;;;;;;20.40;58.80;;;;;;5106650;28;19924;-58
2023/07/02 05:55:02;;;;;;;;;;;20.30;58.80;;;;;;5094874;28;20363;-58
2023/07/02 05:57:27;;;;;;;;;;;20.30;58.70;;;;;;5094435;28;20395;-58
2023/07/02 05:59:53;;;;;;;;;;;20.30;58.70;;;;;;5094415;28;19938;-58
2023/07/02 06:02:18;;;;;;;;;;;20.30;58.70;;;;;;5094393;28;19970;-58
2023/07/02 06:04:44;;;;;;;;;;;20.30;58.60;;;;;;5094405;28;19920;-58
2023/07/02 06:07:09;;;;;;;;;;;20.30;58.60;;;;;;5112684;28;19934;-58
2023/07/02 06:09:34;;;;;;;;;;;20.40;58.70;;;;;;5094659;28;20316;-58
2023/07/02 06:12:00;;;;;;;;;;;20.30;58.60;;;;;;5112853;28;19987;-58
2023/07/02 06:14:26;;;;;;;;;;;20.30;58.50;;;;;;5097391;28;20022;-58
2023/07/02 06:16:52;;;;;;;;;;;20.30;58.60;;;;;;5116703;28;20397;-58
2023/07/02 06:19:18;;;;;;;;;;;20.30;58.60;;;;;;5116593;28;19920;-58
2023/07/02 06:21:43;;;;;;;;;;;20.30;58.60;;;;;;5098356;28;19930;-58
2023/07/02 06:24:09;;;;;;;;;;;20.30;58.60;;;;;;5098397;28;19922;-58
2023/07/02 06:26:34;;;;;;;;;;;20.30;58.50;;;;;;5098316;28;20016;-58
2023/07/02 06:29:00;;;;;;;;;;;20.30;58.50;;;;;;5098152;28;19920;-58
2023/07/02 06:31:26;;;;;;;;;;;20.30;58.50;;;;;;5098324;28;20006;-58
2023/07/02 06:33:51;;;;;;;;;;;20.30;58.40;;;;;;5116383;28;19935;-58
2023/07/02 06:36:17;;;;;;;;;;;20.30;58.50;;;;;;5098329;28;19967;-58
2023/07/02 06:38:43;;;;;;;;;;;20.30;58.50;;;;;;5116270;28;19920;-58
2023/07/02 06:41:08;;;;;;;;;;;20.40;58.60;;;;;;5097912;28;19924;-58
2023/07/02 06:43:34;;;;;;;;;;;20.30;58.50;;;;;;5115936;28;19970;-58
2023/07/02 06:46:00;;;;;;;;;;;20.30;58.40;;;;;;5116257;28;20298;-58
2023/07/02 06:48:25;;;;;;;;;;;20.30;58.50;;;;;;5097985;28;19970;-57
2023/07/02 06:50:50;;;;;;;;;;;20.30;58.40;;;;;;5097820;28;19920;-58
2023/07/02 06:53:16;;;;;;;;;;;20.30;58.30;;;;;;5097464;28;19923;-58
2023/07/02 06:55:41;;;;;;;;;;;20.30;58.40;;;;;;5131632;27;20354;-58
2023/07/02 06:58:08;;;;;;;;;;;20.30;58.30;;;;;;5097877;28;20128;-58
2023/07/02 07:00:36;;;;;;;;;;;20.30;58.40;;;;;;5131996;27;19924;-58
2023/07/02 07:03:03;;;;;;;;;;;20.30;58.30;;;;;;5097535;28;19920;-58
2023/07/02 07:05:29;;;;;;;;;;;20.30;58.30;;;;;;5097708;28;20414;-58
2023/07/02 07:07:55;;;;;;;;;;;20.30;58.20;;;;;;5115754;28;19920;-58
2023/07/02 07:10:20;;;;;;;;;;;20.30;58.20;;;;;;5097211;28;19965;-58
2023/07/02 07:12:46;;;;;;;;;;;20.30;58.20;;;;;;5097215;28;19930;-58
2023/07/02 07:15:11;;;;;;;;;;;20.30;58.10;;;;;;5131747;27;19965;-58
2023/07/02 07:17:37;;;;;;;;;;;20.30;58.20;;;;;;5115574;28;19920;-58
2023/07/02 07:20:04;;;;;;;;;;;20.30;58.00;;;;;;5131490;27;20011;-58
2023/07/02 07:22:30;;;;;;;;;;;20.30;58.00;;;;;;5097172;28;19928;-58
2023/07/02 07:24:55;;;;;;;;;;;20.30;58.00;;;;;;5114758;28;19927;-58
2023/07/02 07:27:21;;;;;;;;;;;20.30;58.10;;;;;;5131154;27;19979;-58
2023/07/02 07:29:46;;;;;;;;;;;20.30;58.10;;;;;;5096916;28;19927;-58
2023/07/02 07:32:12;;;;;;;;;;;20.40;58.00;;;;;;5097093;28;20337;-58
2023/07/02 07:34:37;;;;;;;;;;;20.30;57.90;;;;;;5097124;28;19919;-58
2023/07/02 07:37:03;;;;;;;;;;;20.30;58.00;;;;;;5115065;28;20385;-58
2023/07/02 07:39:28;;;;;;;;;;;20.30;57.90;;;;;;5096749;28;19920;-59
2023/07/02 07:41:54;;;;;;;;;;;20.30;57.90;;;;;;5096919;28;19964;-58
2023/07/02 07:44:19;;;;;;;;;;;20.30;57.90;;;;;;5096934;28;20374;-58
2023/07/02 07:46:45;;;;;;;;;;;20.30;57.80;;;;;;5096841;28;19966;-58
2023/07/02 07:49:10;;;;;;;;;;;20.30;57.80;;;;;;5096890;28;20320;-58
2023/07/02 07:51:36;;;;;;;;;;;20.30;57.70;;;;;;5096351;28;20410;-57
2023/07/02 07:54:02;;;;;;;;;;;20.30;57.70;;;;;;5096697;28;19920;-58
2023/07/02 07:56:27;;;;;;;;;;;20.30;57.90;;;;;;5113740;28;20378;-58
2023/07/02 07:58:53;;;;;;;;;;;20.30;57.70;;;;;;5096393;28;19920;-58
2023/07/02 08:01:18;;;;;;;;;;;20.30;57.80;;;;;;5114587;28;20356;-58
2023/07/02 08:03:44;;;;;;;;;;;20.30;57.60;;;;;;5096702;28;19920;-58
2023/07/02 08:06:09;;;;;;;;;;;20.30;57.50;;;;;;5114531;28;19920;-58
2023/07/02 08:08:35;;;;;;;;;;;20.30;57.50;;;;;;5114503;28;19927;-57
2023/07/02 08:11:00;;;;;;;;;;;20.30;57.40;;;;;;5113662;28;19920;-58
2023/07/02 08:13:26;;;;;;;;;;;20.30;57.40;;;;;;5095844;28;20010;-58
2023/07/02 08:15:51;;;;;;;;;;;20.30;57.40;;;;;;5114399;28;20398;-58
2023/07/02 08:18:17;;;;;;;;;;;20.40;57.50;;;;;;5096211;28;19974;-58
2023/07/02 08:20:42;;;;;;;;;;;20.30;57.30;;;;;;5096076;28;19920;-58
2023/07/02 08:23:08;;;;;;;;;;;20.30;57.30;;;;;;5114092;28;19974;-58
2023/07/02 08:25:33;;;;;;;;;;;20.30;57.30;;;;;;5096045;28;20386;-57
2023/07/02 08:27:59;;;;;;;;;;;20.40;57.20;;;;;;5095703;28;19920;-58
2023/07/02 08:30:24;;;;;;;;;;;20.40;57.20;;;;;;5114288;28;19931;-58
2023/07/02 08:32:50;;;;;;;;;;;20.40;57.20;;;;;;5095704;28;19930;-58
2023/07/02 08:35:15;;;;;;;;;;;20.40;57.30;;;;;;5095436;28;19920;-57
2023/07/02 08:37:41;;;;;;;;;;;20.40;57.20;;;;;;5095426;28;19927;-58
2023/07/02 08:40:14;;;;;;;;;;;20.40;57.10;;;;;;5095848;28;19924;-58
2023/07/02 08:42:40;;;;;;;;;;;20.40;57.00;;;;;;5095426;28;19966;-58
2023/07/02 08:45:06;;;;;;;;;;;20.40;56.90;;;;;;5114034;28;20329;-58
2023/07/02 08:47:32;;;;;;;;;;;20.40;56.80;;;;;;5095766;28;19924;-58
2023/07/02 08:49:57;;;;;;;;;;;20.40;56.60;;;;;;5113747;28;19927;-58
2023/07/02 08:52:23;;;;;;;;;;;20.40;56.60;;;;;;5095256;28;19928;-58
2023/07/02 08:54:48;;;;;;;;;;;20.40;56.60;;;;;;5113655;28;19965;-58
2023/07/02 08:57:14;;;;;;;;;;;20.40;56.50;;;;;;5095277;28;19920;-57
2023/07/02 08:59:39;;;;;;;;;;;20.40;56.50;;;;;;5095087;28;19926;-58
2023/07/02 09:02:05;;;;;;;;;;;20.40;56.50;;;;;;5095561;28;19920;-58
2023/07/02 09:04:30;;;;;;;;;;;20.40;56.50;;;;;;5095116;28;19920;-58
2023/07/02 09:07:11;;;;;;;;;;;20.40;56.20;;;;;;5113451;28;20286;-58
2023/07/02 09:09:46;;;;;;;;;;;20.40;56.40;;;;;;5095257;28;19920;-58
2023/07/02 09:12:32;;;;;;;;;;;20.40;56.50;;;;;;5113208;28;20294;-58
2023/07/02 09:14:59;;;;;;;;;;;20.50;56.60;;;;;;5113042;28;19920;-58
2023/07/02 09:17:29;;;;;;;;;;;20.50;56.10;;;;;;5095265;28;19920;-57
2023/07/02 09:19:55;;;;;;;;;;;20.50;56.10;;;;;;5095040;28;19919;-58
2023/07/02 09:22:20;;;;;;;;;;;20.50;56.10;;;;;;5095107;28;20363;-57
2023/07/02 09:24:54;;;;;;;;;;;20.50;56.40;;;;;;5094971;28;20386;-58
2023/07/02 09:27:19;;;;;;;;;;;20.50;56.50;;;;;;5094849;28;19923;-58
2023/07/02 09:29:49;;;;;;;;;;;20.50;56.40;;;;;;5095023;28;19919;-58
2023/07/02 09:32:23;;;;;;;;;;;20.50;56.30;;;;;;5113036;28;19923;-58
2023/07/02 09:34:48;;;;;;;;;;;20.50;56.20;;;;;;5078187;28;19942;-58
2023/07/02 09:37:14;;;;;;;;;;;20.60;56.30;;;;;;5112896;28;19920;-58
2023/07/02 09:39:39;;;;;;;;;;;20.60;56.30;;;;;;5112840;28;19920;-58
2023/07/02 09:42:06;;;;;;;;;;;20.60;56.30;;;;;;5095010;28;19951;-58
2023/07/02 09:44:32;;;;;;;;;;;20.60;56.30;;;;;;5094377;28;19973;-58
2023/07/02 09:47:02;;;;;;;;;;;20.60;56.30;;;;;;5094352;28;19927;-58
2023/07/02 09:49:31;;;;;;;;;;;20.60;56.20;;;;;;5112766;28;19989;-58
2023/07/02 09:51:56;;;;;;;;;;;20.60;56.20;;;;;;5094412;28;20374;-58
2023/07/02 09:54:22;;;;;;;;;;;20.60;56.10;;;;;;5094781;28;19920;-58
2023/07/02 09:56:47;;;;;;;;;;;20.60;56.10;;;;;;5094731;28;19919;-57
2023/07/02 09:59:13;;;;;;;;;;;20.60;56.10;;;;;;5094880;28;20383;-58
2023/07/02 10:01:39;;;;;;;;;;;20.60;56.10;;;;;;5094826;28;20314;-58
2023/07/02 10:04:12;;;;;;;;;;;20.60;56.10;;;;;;5094729;28;19919;-58
2023/07/02 10:06:46;;;;;;;;;;;20.60;56.00;;;;;;5094646;28;19945;-57
2023/07/02 10:09:11;;;;;;;;;;;20.60;56.10;;;;;;5112855;28;19926;-58
2023/07/02 10:11:37;;;;;;;;;;;20.60;56.00;;;;;;5128559;28;19927;-57
2023/07/02 10:14:02;;;;;;;;;;;20.60;56.00;;;;;;5128436;28;19927;-57
2023/07/02 10:16:31;;;;;;;;;;;20.60;56.00;;;;;;5094589;28;19920;-57
2023/07/02 10:19:12;;;;;;;;;;;20.60;56.00;;;;;;5112671;28;19926;-58
2023/07/02 10:21:37;;;;;;;;;;;20.60;56.10;;;;;;5094157;28;19973;-57
2023/07/02 10:24:18;;;;;;;;;;;20.60;56.00;;;;;;5094771;28;19932;-58
2023/07/02 10:26:51;;;;;;;;;;;20.60;56.10;;;;;;5128318;28;19928;-58
2023/07/02 10:29:18;;;;;;;;;;;20.60;56.10;;;;;;5112492;28;20402;-58
2023/07/02 10:31:51;;;;;;;;;;;20.60;56.00;;;;;;5094311;28;19927;-57
2023/07/02 10:34:37;;;;;;;;;;;20.60;56.00;;;;;;5112542;28;19973;-58
2023/07/02 10:37:03;;;;;;;;;;;20.60;56.00;;;;;;5112141;28;19920;-58
2023/07/02 10:39:30;;;;;;;;;;;20.60;56.10;;;;;;5094153;28;19919;-58
2023/07/02 10:42:10;;;;;;;;;;;20.70;56.10;;;;;;5112255;28;19927;-57
2023/07/02 10:44:51;;;;;;;;;;;20.60;56.00;;;;;;5094061;28;20010;-58
2023/07/02 10:47:17;;;;;;;;;;;20.60;56.00;;;;;;5093888;28;19920;-58
2023/07/02 10:49:42;;;;;;;;;;;20.60;55.90;;;;;;5094071;28;19927;-58
2023/07/02 10:52:08;;;;;;;;;;;20.60;55.90;;;;;;5093892;28;19924;-58
2023/07/02 10:54:48;;;;;;;;;;;20.60;55.90;;;;;;5093969;28;20252;-58
2023/07/02 10:57:16;;;;;;;;;;;20.60;55.90;;;;;;5112009;28;19959;-58
2023/07/02 10:59:41;;;;;;;;;;;20.60;55.90;;;;;;5113679;28;19920;-57
2023/07/02 11:02:09;;;;;;;;;;;20.60;55.90;;;;;;5115987;28;20271;-57
2023/07/02 11:04:35;;;;;;;;;;;20.60;55.80;;;;;;5097785;28;19945;-58
2023/07/02 11:07:01;;;;;;;;;;;20.60;55.80;;;;;;5097461;28;20012;-58
2023/07/02 11:09:27;;;;;;;;;;;20.60;55.80;;;;;;5097625;28;19955;-58
2023/07/02 11:14:36;;;;;;;;;;;20.60;55.70;;;;;;5110251;27;19918;-58
2023/07/02 11:17:03;;;;;;;;;;;20.60;55.70;;;;;;5092035;28;20374;-57
2023/07/02 11:19:29;;;;;;;;;;;20.60;55.60;;;;;;5109147;28;20321;-58
2023/07/02 11:21:56;;;;;;;;;;;20.60;55.60;;;;;;5110185;28;19965;-58
2023/07/02 11:24:37;;;;;;;;;;;20.60;55.60;;;;;;5109032;28;19931;-57
2023/07/02 11:27:05;;;;;;;;;;;20.60;55.50;;;;;;5108796;28;20447;-57
2023/07/02 11:29:31;;;;;;;;;;;20.60;55.40;;;;;;5108958;28;19920;-58
2023/07/02 11:32:11;;;;;;;;;;;20.60;55.50;;;;;;5108711;28;19924;-57
2023/07/02 11:34:37;;;;;;;;;;;20.60;55.50;;;;;;5108548;28;19924;-58
2023/07/02 11:37:04;;;;;;;;;;;20.70;55.40;;;;;;5109892;28;19943;-57
2023/07/02 11:39:29;;;;;;;;;;;20.60;55.30;;;;;;5110061;28;19920;-58
2023/07/02 11:41:55;;;;;;;;;;;20.60;55.30;;;;;;5108719;28;20379;-58
2023/07/02 11:44:21;;;;;;;;;;;20.60;55.30;;;;;;5109793;28;19942;-58
2023/07/02 11:46:47;;;;;;;;;;;20.70;55.30;;;;;;5109644;28;20367;-58
2023/07/02 11:49:13;;;;;;;;;;;20.70;55.20;;;;;;5108581;28;19967;-58
2023/07/02 11:51:39;;;;;;;;;;;20.60;55.20;;;;;;5108674;28;20006;-58
2023/07/02 11:54:04;;;;;;;;;;;20.70;55.20;;;;;;5108060;28;19928;-58
2023/07/02 11:56:30;;;;;;;;;;;20.60;55.10;;;;;;5107683;28;19929;-58
2023/07/02 11:58:56;;;;;;;;;;;20.60;55.00;;;;;;5108332;28;19924;-58
2023/07/02 12:01:21;;;;;;;;;;;20.60;55.10;;;;;;5108163;28;19924;-58
2023/07/02 12:03:47;;;;;;;;;;;20.70;55.10;;;;;;5109328;28;19920;-58
2023/07/02 12:06:12;;;;;;;;;;;20.60;55.00;;;;;;5108110;28;19919;-58
2023/07/02 12:08:38;;;;;;;;;;;20.70;55.00;;;;;;5109221;28;20328;-58
2023/07/02 12:11:03;;;;;;;;;;;20.60;55.00;;;;;;5108005;28;20007;-58
2023/07/02 12:13:29;;;;;;;;;;;20.60;55.00;;;;;;5106677;28;19969;-58
2023/07/02 12:15:54;;;;;;;;;;;20.70;55.00;;;;;;5108507;28;19927;-58
2023/07/02 12:18:20;;;;;;;;;;;20.70;55.00;;;;;;5106907;28;19919;-58
2023/07/02 12:20:45;;;;;;;;;;;20.70;54.90;;;;;;5108289;28;20007;-58
2023/07/02 12:23:11;;;;;;;;;;;20.70;54.80;;;;;;5106864;28;19945;-58
2023/07/02 12:25:37;;;;;;;;;;;20.70;54.90;;;;;;5095174;28;20340;-58
2023/07/02 12:28:03;;;;;;;;;;;20.70;54.90;;;;;;5093272;28;19920;-57
2023/07/02 12:30:28;;;;;;;;;;;20.70;54.90;;;;;;5093139;28;19924;-58
2023/07/02 12:32:54;;;;;;;;;;;20.70;54.90;;;;;;5094718;28;19924;-58
2023/07/02 12:35:19;;;;;;;;;;;20.70;54.80;;;;;;5094307;28;19927;-58
2023/07/02 12:37:46;;;;;;;;;;;20.70;54.80;;;;;;5094328;28;19920;-58
2023/07/02 12:40:12;;;;;;;;;;;20.70;54.80;;;;;;5093259;28;20027;-57
2023/07/02 12:42:37;;;;;;;;;;;20.70;54.70;;;;;;5094221;28;19924;-58
2023/07/02 12:45:03;;;;;;;;;;;20.70;54.60;;;;;;5093164;28;19920;-58
2023/07/02 12:47:29;;;;;;;;;;;20.70;54.60;;;;;;5092979;28;19920;-58
2023/07/02 12:49:54;;;;;;;;;;;20.70;54.60;;;;;;5094325;28;19920;-58
2023/07/02 12:52:20;;;;;;;;;;;20.70;54.60;;;;;;5093005;28;19927;-58
2023/07/02 12:54:45;;;;;;;;;;;20.70;54.60;;;;;;5094115;28;19920;-58
2023/07/02 12:57:11;;;;;;;;;;;20.70;54.60;;;;;;5093119;28;19928;-58
2023/07/02 12:59:36;;;;;;;;;;;20.70;54.50;;;;;;5093703;28;20407;-58
2023/07/02 13:02:02;;;;;;;;;;;20.70;54.50;;;;;;5092581;28;19965;-58
2023/07/02 13:04:27;;;;;;;;;;;20.70;54.40;;;;;;5092902;28;19927;-58
2023/07/02 13:06:53;;;;;;;;;;;20.70;54.30;;;;;;5094223;28;19990;-58
2023/07/02 13:09:18;;;;;;;;;;;20.60;54.30;;;;;;5093132;28;19920;-58
2023/07/02 13:11:44;;;;;;;;;;;20.60;54.30;;;;;;5092755;28;19931;-58
2023/07/02 13:14:10;;;;;;;;;;;20.70;54.30;;;;;;5092880;28;20306;-58
2023/07/02 13:16:35;;;;;;;;;;;20.70;54.30;;;;;;5092494;28;20046;-59
2023/07/02 13:19:02;;;;;;;;;;;20.70;54.30;;;;;;5094017;28;20037;-58
2023/07/02 13:21:27;;;;;;;;;;;20.70;54.20;;;;;;5092377;28;19920;-58
2023/07/02 13:23:53;;;;;;;;;;;20.70;54.30;;;;;;5092771;28;19927;-58
2023/07/02 13:26:19;;;;;;;;;;;20.70;54.30;;;;;;5093074;28;19924;-58
2023/07/02 13:28:47;;;;;;;;;;;20.70;54.30;;;;;;5092876;28;20324;-58
2023/07/02 13:31:14;;;;;;;;;;;20.70;54.20;;;;;;5094090;28;19993;-58
2023/07/02 13:33:40;;;;;;;;;;;20.80;54.50;;;;;;5092561;28;20022;-58
2023/07/02 13:36:05;;;;;;;;;;;20.70;54.20;;;;;;5092881;28;20006;-58
2023/07/02 13:38:31;;;;;;;;;;;20.70;54.20;;;;;;5092366;28;19927;-58
2023/07/02 13:40:56;;;;;;;;;;;20.70;54.10;;;;;;5092027;28;19920;-58
2023/07/02 13:43:22;;;;;;;;;;;20.80;54.10;;;;;;5093508;28;19963;-57
2023/07/02 13:45:47;;;;;;;;;;;20.70;54.10;;;;;;5092257;28;19924;-57
2023/07/02 13:48:13;;;;;;;;;;;20.70;54.00;;;;;;5093593;28;20251;-58
2023/07/02 13:50:38;;;;;;;;;;;20.70;53.90;;;;;;5109476;28;19920;-59
2023/07/02 13:53:04;;;;;;;;;;;20.80;53.90;;;;;;5092506;28;19988;-57
2023/07/02 13:55:30;;;;;;;;;;;20.80;53.80;;;;;;5092303;28;19920;-58
2023/07/02 13:57:57;;;;;;;;;;;20.80;53.80;;;;;;5091779;28;19920;-58
2023/07/02 14:00:24;;;;;;;;;;;20.80;53.80;;;;;;5092963;28;19924;-58
2023/07/02 14:02:49;;;;;;;;;;;20.80;53.80;;;;;;5092980;28;19958;-58
2023/07/02 14:05:15;;;;;;;;;;;20.70;53.70;;;;;;5092878;28;19920;-58
2023/07/02 14:07:40;;;;;;;;;;;20.70;53.70;;;;;;5091875;28;19919;-58
2023/07/02 14:10:06;;;;;;;;;;;20.80;53.70;;;;;;5092254;28;20196;-58
2023/07/02 14:12:31;;;;;;;;;;;20.80;53.70;;;;;;5094736;28;19977;-57
2023/07/02 14:14:57;;;;;;;;;;;20.80;53.70;;;;;;5113507;28;19926;-57